עמוד ראשי
METAR-TAF:

METAR-TAF

שדות תעופה :

Wick, סקוטלנד

קו רוחב: 58-27N, קו אורך: 003-05W, גובה: 39מטר

תצפית מזג אוויר נוכחית

הדו"ח נערך לפני 22דקות, בשעה 22:20 UTC
רוח 6קשר מכיוון מזרח/דרום-מזרח
טמפרטורת 9 צלסיוס
לחות 93%
לחץ 1016 hPa
ראות 10 קילומטר או יותר

METAR: EGPC 202220Z AUTO 11006KT 9999 NCD 09/08 Q1016

זמן: 23:42 (22:42 UTC)

תחזית

הדו"ח נערך לפני 2 שעות ו 47דקות, בשעה 19:55 UTC
תחזית בתוקף מ 20 ב 21 UTC עד 21 ב 06 UTC
רוח 9קשר מכיוון מזרח/דרום-מזרח
ראות 10 קילומטר או יותר
מעט עננים בגובה 600רגל
זמנית מ -
21 ב 00 UTC עד 21 ב 06 UTC
ראות: 6000מטר
הסתברות 40% :
זמנית מ -
21 ב 02 UTC עד 21 ב 06 UTC
עננים בינוניים בגובה 500רגל

TAF: EGPC 201955Z 2021/2106 11009KT 9999 FEW006 TEMPO 2100/2106 6000 PROB40 TEMPO 2102/2106 BKN005

תצפיות ותחזיות מזג אוויר לגבי יותר מ- 4,000 שדות תעופה ברחבי העולם. דוחות METAR ו- TAF.

התחנות הזמינות מסומנות בנקודות צהובות ואדומות על גבי המפה.

העבר את העכבר לנקודה הצבעונית על מנת לראות את שם התחנה.

לאחר מכן, לחץ כדי לראות את תוכן ואת תחזיות מזג האוויר.

כדי לשנות את המפה: לחץ על הכפתורים הירוקים עם הפלוס השחור כדי להתקרב; על הכפתור הירוק עם המקף כדי להתרחק; או בחיצים הירוקים למפות סמוכות.


METAR-TAF: